This is the latest recevied weather packets stored in our database for station/object KQ7A. If no packets are shown the sender has not sent any weather packets the latest 10 day(s).
| Time | Temp. | Humidity | Pressure | Rain* | Wind** | Luminosity | Snow |
|---|---|---|---|---|---|---|---|
| 1788192653 | 17.78° C | 52% | 1017.6 hPa | 0 mm | - | 365 W/m² | - |
| 1788192351 | 18.33° C | 51% | 1017.9 hPa | 0 mm | - | 347 W/m² | - |
| 1788192048 | 18.33° C | 50% | 1017.9 hPa | 0 mm | - | 327 W/m² | - |
| 1788191742 | 17.78° C | 54% | 1018.1 hPa | 0 mm | - | 308 W/m² | - |
| 1788191437 | 16.67° C | 57% | 1017.8 hPa | 0 mm | - | 291 W/m² | - |
| 1788191138 | 16.67° C | 59% | 1017.9 hPa | 0 mm | - | 286 W/m² | - |
| 1788190827 | 16.11° C | 60% | 1018.1 hPa | 0 mm | - | 265 W/m² | - |
| 1788190527 | 16.67° C | 57% | 1017.7 hPa | 0 mm | - | 248 W/m² | - |
| 1788190224 | 16.11° C | 55% | 1017.8 hPa | 0 mm | - | 232 W/m² | - |
| 1788189919 | 15° C | 58% | 1018.2 hPa | 0 mm | - | 206 W/m² | - |
| 1788189615 | 14.44° C | 64% | 1018.3 hPa | 0 mm | - | 196 W/m² | - |
| 1788189313 | 13.89° C | 63% | 1018.1 hPa | 0 mm | - | 176 W/m² | - |
| 1788189008 | 13.89° C | 63% | 1018.2 hPa | 0 mm | - | 161 W/m² | - |
| 1788188703 | 13.89° C | 62% | 1017.9 hPa | 0 mm | - | 117 W/m² | - |
| 1788188398 | 13.89° C | 62% | 1018.1 hPa | 0 mm | - | 114 W/m² | - |
| 1788188093 | 12.78° C | 66% | 1017.9 hPa | 0 mm | - | 77 W/m² | - |
| 1788187790 | 13.89° C | 68% | 1017.9 hPa | 0 mm | - | 79 W/m² | - |
| 1788187484 | 14.44° C | 62% | 1018.2 hPa | 0 mm | - | 64 W/m² | - |
| 1788187180 | 13.89° C | 61% | 1017.9 hPa | 0 mm | - | 55 W/m² | - |
| 1788186875 | 11.67° C | 71% | 1017.7 hPa | 0 mm | - | 48 W/m² | - |
| 1788186570 | 11.11° C | 76% | 1017.9 hPa | 0 mm | - | 45 W/m² | - |
| 1788186266 | 10° C | 77% | 1017.9 hPa | 0 mm | - | 41 W/m² | - |
| 1788185960 | 8.89° C | 79% | 1017.7 hPa | 0 mm | - | 31 W/m² | - |
| 1788185654 | 8.33° C | 83% | 1018.1 hPa | 0 mm | - | 29 W/m² | - |
| 1788185349 | 7.78° C | 86% | 1017.8 hPa | 0 mm | - | 26 W/m² | - |
* Rain latest hour (hover to see other rain measurements)
** Current wind speed in m/s (hover to see current wind gust speed)